sensor_id;sensor_type;location;lat;lon;timestamp;P1;durP1;ratioP1;P2;durP2;ratioP2
31638;SDS011;18248;51.522;7.020;2023-03-23T00:01:05;7.07;;;2.90;;
31638;SDS011;18248;51.522;7.020;2023-03-23T00:04:08;8.43;;;3.10;;
31638;SDS011;18248;51.522;7.020;2023-03-23T00:07:06;9.90;;;3.03;;
31638;SDS011;18248;51.522;7.020;2023-03-23T00:10:05;5.85;;;2.90;;
31638;SDS011;18248;51.522;7.020;2023-03-23T00:13:04;5.10;;;3.00;;
31638;SDS011;18248;51.522;7.020;2023-03-23T00:16:03;6.75;;;3.10;;
31638;SDS011;18248;51.522;7.020;2023-03-23T00:19:05;6.00;;;2.47;;
31638;SDS011;18248;51.522;7.020;2023-03-23T00:22:12;10.75;;;3.05;;
31638;SDS011;18248;51.522;7.020;2023-03-23T00:25:12;5.68;;;2.38;;
31638;SDS011;18248;51.522;7.020;2023-03-23T00:28:10;5.57;;;2.45;;
31638;SDS011;18248;51.522;7.020;2023-03-23T00:31:10;6.15;;;2.33;;
31638;SDS011;18248;51.522;7.020;2023-03-23T00:34:10;6.22;;;2.35;;
31638;SDS011;18248;51.522;7.020;2023-03-23T00:37:10;7.47;;;2.88;;
31638;SDS011;18248;51.522;7.020;2023-03-23T00:40:09;5.72;;;2.33;;
31638;SDS011;18248;51.522;7.020;2023-03-23T00:43:10;9.55;;;2.33;;
31638;SDS011;18248;51.522;7.020;2023-03-23T00:46:11;4.85;;;2.40;;
31638;SDS011;18248;51.522;7.020;2023-03-23T00:49:16;5.43;;;2.65;;
31638;SDS011;18248;51.522;7.020;2023-03-23T00:52:22;2.75;;;1.98;;
31638;SDS011;18248;51.522;7.020;2023-03-23T00:55:23;7.03;;;2.60;;
31638;SDS011;18248;51.522;7.020;2023-03-23T00:58:22;5.85;;;2.17;;
31638;SDS011;18248;51.522;7.020;2023-03-23T01:01:21;7.60;;;2.30;;
31638;SDS011;18248;51.522;7.020;2023-03-23T01:04:20;6.70;;;2.50;;
31638;SDS011;18248;51.522;7.020;2023-03-23T01:07:20;4.97;;;2.50;;
31638;SDS011;18248;51.522;7.020;2023-03-23T01:10:21;6.53;;;2.55;;
31638;SDS011;18248;51.522;7.020;2023-03-23T01:13:19;5.38;;;2.70;;
31638;SDS011;18248;51.522;7.020;2023-03-23T01:16:18;6.13;;;2.30;;
31638;SDS011;18248;51.522;7.020;2023-03-23T01:19:16;4.63;;;2.45;;
31638;SDS011;18248;51.522;7.020;2023-03-23T01:22:15;4.78;;;2.35;;
31638;SDS011;18248;51.522;7.020;2023-03-23T01:25:14;4.72;;;2.15;;
31638;SDS011;18248;51.522;7.020;2023-03-23T01:28:12;6.90;;;2.70;;
31638;SDS011;18248;51.522;7.020;2023-03-23T01:31:12;5.10;;;2.53;;
31638;SDS011;18248;51.522;7.020;2023-03-23T01:34:13;4.65;;;2.38;;
31638;SDS011;18248;51.522;7.020;2023-03-23T01:37:11;5.22;;;2.10;;
31638;SDS011;18248;51.522;7.020;2023-03-23T01:40:10;6.97;;;2.50;;
31638;SDS011;18248;51.522;7.020;2023-03-23T01:43:11;6.63;;;2.25;;
31638;SDS011;18248;51.522;7.020;2023-03-23T01:46:12;6.13;;;2.30;;
31638;SDS011;18248;51.522;7.020;2023-03-23T01:49:15;4.80;;;2.15;;
31638;SDS011;18248;51.522;7.020;2023-03-23T01:52:22;4.40;;;1.90;;
31638;SDS011;18248;51.522;7.020;2023-03-23T01:55:23;6.40;;;1.92;;
31638;SDS011;18248;51.522;7.020;2023-03-23T01:58:25;3.95;;;1.92;;
31638;SDS011;18248;51.522;7.020;2023-03-23T02:01:27;9.18;;;2.20;;
31638;SDS011;18248;51.522;7.020;2023-03-23T02:04:26;5.00;;;1.80;;
31638;SDS011;18248;51.522;7.020;2023-03-23T02:07:26;5.53;;;1.77;;
31638;SDS011;18248;51.522;7.020;2023-03-23T02:10:26;2.45;;;1.55;;
31638;SDS011;18248;51.522;7.020;2023-03-23T02:13:27;6.07;;;2.00;;
31638;SDS011;18248;51.522;7.020;2023-03-23T02:19:52;5.20;;;2.40;;
31638;SDS011;18248;51.522;7.020;2023-03-23T02:30:10;6.05;;;2.45;;
31638;SDS011;18248;51.522;7.020;2023-03-23T02:36:47;3.63;;;2.28;;
31638;SDS011;18248;51.522;7.020;2023-03-23T02:40:10;5.75;;;2.45;;
31638;SDS011;18248;51.522;7.020;2023-03-23T02:43:16;4.45;;;2.38;;
31638;SDS011;18248;51.522;7.020;2023-03-23T02:46:18;5.78;;;2.38;;
31638;SDS011;18248;51.522;7.020;2023-03-23T02:49:19;7.40;;;2.83;;
31638;SDS011;18248;51.522;7.020;2023-03-23T02:52:21;6.22;;;2.40;;
31638;SDS011;18248;51.522;7.020;2023-03-23T02:55:23;6.53;;;2.43;;
31638;SDS011;18248;51.522;7.020;2023-03-23T02:58:23;6.65;;;2.22;;
31638;SDS011;18248;51.522;7.020;2023-03-23T03:04:24;5.07;;;2.30;;
31638;SDS011;18248;51.522;7.020;2023-03-23T03:07:28;5.57;;;2.55;;
31638;SDS011;18248;51.522;7.020;2023-03-23T03:10:31;5.63;;;2.20;;
31638;SDS011;18248;51.522;7.020;2023-03-23T03:13:54;5.90;;;2.80;;
31638;SDS011;18248;51.522;7.020;2023-03-23T03:20:26;6.43;;;2.20;;
31638;SDS011;18248;51.522;7.020;2023-03-23T03:23:28;3.67;;;1.90;;
31638;SDS011;18248;51.522;7.020;2023-03-23T03:26:29;8.13;;;2.08;;
31638;SDS011;18248;51.522;7.020;2023-03-23T03:29:31;2.63;;;1.90;;
31638;SDS011;18248;51.522;7.020;2023-03-23T03:32:36;5.20;;;2.50;;
31638;SDS011;18248;51.522;7.020;2023-03-23T03:35:40;4.90;;;2.33;;
31638;SDS011;18248;51.522;7.020;2023-03-23T03:38:44;5.43;;;2.28;;
31638;SDS011;18248;51.522;7.020;2023-03-23T03:41:45;5.53;;;1.92;;
31638;SDS011;18248;51.522;7.020;2023-03-23T03:44:44;4.35;;;1.98;;
31638;SDS011;18248;51.522;7.020;2023-03-23T03:47:43;3.72;;;1.70;;
31638;SDS011;18248;51.522;7.020;2023-03-23T03:50:41;5.25;;;1.90;;
31638;SDS011;18248;51.522;7.020;2023-03-23T03:53:40;2.83;;;1.85;;
31638;SDS011;18248;51.522;7.020;2023-03-23T03:56:38;7.20;;;2.40;;
31638;SDS011;18248;51.522;7.020;2023-03-23T03:59:38;4.88;;;2.10;;
31638;SDS011;18248;51.522;7.020;2023-03-23T04:02:38;5.15;;;2.20;;
31638;SDS011;18248;51.522;7.020;2023-03-23T04:05:38;4.70;;;1.88;;
31638;SDS011;18248;51.522;7.020;2023-03-23T04:08:37;2.63;;;1.60;;
31638;SDS011;18248;51.522;7.020;2023-03-23T04:11:37;3.70;;;1.95;;
31638;SDS011;18248;51.522;7.020;2023-03-23T04:14:35;2.88;;;1.95;;
31638;SDS011;18248;51.522;7.020;2023-03-23T04:17:35;3.45;;;2.20;;
31638;SDS011;18248;51.522;7.020;2023-03-23T04:20:33;4.63;;;1.90;;
31638;SDS011;18248;51.522;7.020;2023-03-23T04:23:32;5.15;;;1.77;;
31638;SDS011;18248;51.522;7.020;2023-03-23T04:26:33;4.13;;;1.90;;
31638;SDS011;18248;51.522;7.020;2023-03-23T04:29:31;2.20;;;1.70;;
31638;SDS011;18248;51.522;7.020;2023-03-23T04:32:31;7.07;;;2.20;;
31638;SDS011;18248;51.522;7.020;2023-03-23T04:35:30;4.57;;;1.80;;
31638;SDS011;18248;51.522;7.020;2023-03-23T04:38:28;3.75;;;2.00;;
31638;SDS011;18248;51.522;7.020;2023-03-23T04:41:30;4.57;;;2.28;;
31638;SDS011;18248;51.522;7.020;2023-03-23T04:44:29;3.55;;;2.17;;
31638;SDS011;18248;51.522;7.020;2023-03-23T04:47:31;3.83;;;2.00;;
31638;SDS011;18248;51.522;7.020;2023-03-23T04:50:37;4.28;;;1.95;;
31638;SDS011;18248;51.522;7.020;2023-03-23T04:53:36;7.38;;;1.88;;
31638;SDS011;18248;51.522;7.020;2023-03-23T04:56:35;4.35;;;2.58;;
31638;SDS011;18248;51.522;7.020;2023-03-23T04:59:34;3.55;;;1.73;;
31638;SDS011;18248;51.522;7.020;2023-03-23T05:02:33;3.72;;;1.90;;
31638;SDS011;18248;51.522;7.020;2023-03-23T05:05:37;4.53;;;2.22;;
31638;SDS011;18248;51.522;7.020;2023-03-23T05:08:38;4.00;;;1.92;;
31638;SDS011;18248;51.522;7.020;2023-03-23T05:11:36;5.90;;;2.00;;
31638;SDS011;18248;51.522;7.020;2023-03-23T05:14:39;6.45;;;2.03;;
31638;SDS011;18248;51.522;7.020;2023-03-23T05:17:39;8.07;;;2.85;;
31638;SDS011;18248;51.522;7.020;2023-03-23T05:20:41;3.85;;;2.00;;
31638;SDS011;18248;51.522;7.020;2023-03-23T05:23:40;3.72;;;1.85;;
31638;SDS011;18248;51.522;7.020;2023-03-23T05:26:40;4.93;;;1.88;;
31638;SDS011;18248;51.522;7.020;2023-03-23T05:29:38;5.07;;;1.77;;
31638;SDS011;18248;51.522;7.020;2023-03-23T05:32:38;4.93;;;2.40;;
31638;SDS011;18248;51.522;7.020;2023-03-23T05:35:37;4.97;;;2.25;;
31638;SDS011;18248;51.522;7.020;2023-03-23T05:38:36;8.90;;;2.58;;
31638;SDS011;18248;51.522;7.020;2023-03-23T05:41:36;4.93;;;2.33;;
31638;SDS011;18248;51.522;7.020;2023-03-23T05:44:36;4.88;;;2.00;;
31638;SDS011;18248;51.522;7.020;2023-03-23T05:47:35;6.22;;;2.30;;
31638;SDS011;18248;51.522;7.020;2023-03-23T05:50:34;3.90;;;2.20;;
31638;SDS011;18248;51.522;7.020;2023-03-23T05:53:32;4.47;;;2.17;;
31638;SDS011;18248;51.522;7.020;2023-03-23T05:56:31;5.25;;;2.35;;
31638;SDS011;18248;51.522;7.020;2023-03-23T05:59:31;5.25;;;2.28;;
31638;SDS011;18248;51.522;7.020;2023-03-23T06:02:31;4.95;;;2.20;;
31638;SDS011;18248;51.522;7.020;2023-03-23T06:05:30;4.88;;;2.80;;
31638;SDS011;18248;51.522;7.020;2023-03-23T06:08:29;6.43;;;2.50;;
31638;SDS011;18248;51.522;7.020;2023-03-23T06:11:28;3.97;;;1.80;;
31638;SDS011;18248;51.522;7.020;2023-03-23T06:14:26;4.45;;;2.17;;
31638;SDS011;18248;51.522;7.020;2023-03-23T06:17:25;5.03;;;2.40;;
31638;SDS011;18248;51.522;7.020;2023-03-23T06:20:24;6.28;;;2.55;;
31638;SDS011;18248;51.522;7.020;2023-03-23T06:23:23;5.45;;;2.50;;
31638;SDS011;18248;51.522;7.020;2023-03-23T06:26:23;3.75;;;2.08;;
31638;SDS011;18248;51.522;7.020;2023-03-23T06:29:26;6.03;;;2.38;;
31638;SDS011;18248;51.522;7.020;2023-03-23T06:32:25;4.55;;;2.55;;
31638;SDS011;18248;51.522;7.020;2023-03-23T06:35:26;6.60;;;2.55;;
31638;SDS011;18248;51.522;7.020;2023-03-23T06:38:24;4.63;;;2.60;;
31638;SDS011;18248;51.522;7.020;2023-03-23T06:41:25;7.22;;;2.72;;
31638;SDS011;18248;51.522;7.020;2023-03-23T06:44:24;7.28;;;2.75;;
31638;SDS011;18248;51.522;7.020;2023-03-23T06:47:23;6.82;;;2.45;;
31638;SDS011;18248;51.522;7.020;2023-03-23T06:50:22;10.15;;;2.97;;
31638;SDS011;18248;51.522;7.020;2023-03-23T06:53:21;8.10;;;2.95;;
31638;SDS011;18248;51.522;7.020;2023-03-23T06:56:19;7.00;;;2.80;;
31638;SDS011;18248;51.522;7.020;2023-03-23T06:59:18;9.77;;;2.40;;
31638;SDS011;18248;51.522;7.020;2023-03-23T07:02:17;6.72;;;2.30;;
31638;SDS011;18248;51.522;7.020;2023-03-23T07:05:16;10.55;;;2.65;;
31638;SDS011;18248;51.522;7.020;2023-03-23T07:08:14;9.07;;;2.17;;
31638;SDS011;18248;51.522;7.020;2023-03-23T07:11:13;9.88;;;2.50;;
31638;SDS011;18248;51.522;7.020;2023-03-23T07:14:12;9.20;;;2.17;;
31638;SDS011;18248;51.522;7.020;2023-03-23T07:17:10;9.80;;;2.78;;
31638;SDS011;18248;51.522;7.020;2023-03-23T07:20:09;7.38;;;2.00;;
31638;SDS011;18248;51.522;7.020;2023-03-23T07:23:10;12.90;;;2.95;;
31638;SDS011;18248;51.522;7.020;2023-03-23T07:26:08;5.53;;;1.95;;
31638;SDS011;18248;51.522;7.020;2023-03-23T07:29:07;7.00;;;2.10;;
31638;SDS011;18248;51.522;7.020;2023-03-23T07:32:08;9.32;;;2.17;;
31638;SDS011;18248;51.522;7.020;2023-03-23T07:35:09;8.20;;;2.10;;
31638;SDS011;18248;51.522;7.020;2023-03-23T07:38:08;7.13;;;2.45;;
31638;SDS011;18248;51.522;7.020;2023-03-23T07:41:07;8.23;;;2.33;;
31638;SDS011;18248;51.522;7.020;2023-03-23T07:44:06;8.98;;;2.00;;
31638;SDS011;18248;51.522;7.020;2023-03-23T07:47:04;11.73;;;2.40;;
31638;SDS011;18248;51.522;7.020;2023-03-23T07:50:04;10.60;;;2.50;;
31638;SDS011;18248;51.522;7.020;2023-03-23T07:53:04;7.18;;;2.53;;
31638;SDS011;18248;51.522;7.020;2023-03-23T07:56:04;8.02;;;2.30;;
31638;SDS011;18248;51.522;7.020;2023-03-23T07:59:03;4.97;;;1.70;;
31638;SDS011;18248;51.522;7.020;2023-03-23T08:02:02;9.43;;;1.88;;
31638;SDS011;18248;51.522;7.020;2023-03-23T08:05:01;9.00;;;2.03;;
31638;SDS011;18248;51.522;7.020;2023-03-23T08:08:00;7.40;;;2.17;;
31638;SDS011;18248;51.522;7.020;2023-03-23T08:10:59;6.03;;;1.75;;
31638;SDS011;18248;51.522;7.020;2023-03-23T08:13:57;9.55;;;1.80;;
31638;SDS011;18248;51.522;7.020;2023-03-23T08:16:56;9.05;;;1.92;;
31638;SDS011;18248;51.522;7.020;2023-03-23T08:19:55;6.68;;;2.10;;
31638;SDS011;18248;51.522;7.020;2023-03-23T08:22:54;5.38;;;1.70;;
31638;SDS011;18248;51.522;7.020;2023-03-23T08:25:54;6.30;;;1.70;;
31638;SDS011;18248;51.522;7.020;2023-03-23T08:28:54;7.70;;;2.25;;
31638;SDS011;18248;51.522;7.020;2023-03-23T08:31:52;8.50;;;2.03;;
31638;SDS011;18248;51.522;7.020;2023-03-23T08:34:51;10.27;;;2.15;;
31638;SDS011;18248;51.522;7.020;2023-03-23T08:37:50;6.72;;;2.42;;
31638;SDS011;18248;51.522;7.020;2023-03-23T08:40:50;6.07;;;1.85;;
31638;SDS011;18248;51.522;7.020;2023-03-23T08:43:50;6.57;;;1.83;;
31638;SDS011;18248;51.522;7.020;2023-03-23T08:46:50;5.28;;;1.48;;
31638;SDS011;18248;51.522;7.020;2023-03-23T08:49:52;7.25;;;1.75;;
31638;SDS011;18248;51.522;7.020;2023-03-23T08:52:52;7.63;;;1.80;;
31638;SDS011;18248;51.522;7.020;2023-03-23T08:55:51;6.22;;;1.58;;
31638;SDS011;18248;51.522;7.020;2023-03-23T08:58:50;7.10;;;2.20;;
31638;SDS011;18248;51.522;7.020;2023-03-23T09:01:48;5.00;;;1.55;;
31638;SDS011;18248;51.522;7.020;2023-03-23T09:04:47;11.27;;;1.90;;
31638;SDS011;18248;51.522;7.020;2023-03-23T09:07:48;13.68;;;2.03;;
31638;SDS011;18248;51.522;7.020;2023-03-23T09:10:47;11.02;;;2.28;;
31638;SDS011;18248;51.522;7.020;2023-03-23T09:13:48;8.73;;;2.40;;
31638;SDS011;18248;51.522;7.020;2023-03-23T09:16:46;11.75;;;2.45;;
31638;SDS011;18248;51.522;7.020;2023-03-23T09:19:45;12.57;;;2.35;;
31638;SDS011;18248;51.522;7.020;2023-03-23T09:22:44;11.57;;;2.15;;
31638;SDS011;18248;51.522;7.020;2023-03-23T09:25:46;9.68;;;2.10;;
31638;SDS011;18248;51.522;7.020;2023-03-23T09:28:45;10.82;;;2.50;;
31638;SDS011;18248;51.522;7.020;2023-03-23T09:31:44;10.40;;;1.83;;
31638;SDS011;18248;51.522;7.020;2023-03-23T09:34:44;11.38;;;2.17;;
31638;SDS011;18248;51.522;7.020;2023-03-23T09:37:43;8.23;;;1.60;;
31638;SDS011;18248;51.522;7.020;2023-03-23T09:40:45;9.25;;;1.88;;
31638;SDS011;18248;51.522;7.020;2023-03-23T09:50:34;9.75;;;1.67;;
31638;SDS011;18248;51.522;7.020;2023-03-23T09:53:37;8.75;;;1.95;;
31638;SDS011;18248;51.522;7.020;2023-03-23T09:56:39;13.20;;;2.63;;
31638;SDS011;18248;51.522;7.020;2023-03-23T09:59:41;10.88;;;2.22;;
31638;SDS011;18248;51.522;7.020;2023-03-23T10:06:04;13.50;;;2.25;;
31638;SDS011;18248;51.522;7.020;2023-03-23T10:09:05;10.68;;;2.58;;
31638;SDS011;18248;51.522;7.020;2023-03-23T10:15:49;10.25;;;2.65;;
31638;SDS011;18248;51.522;7.020;2023-03-23T10:19:01;9.38;;;2.35;;
31638;SDS011;18248;51.522;7.020;2023-03-23T10:22:22;12.23;;;2.72;;
31638;SDS011;18248;51.522;7.020;2023-03-23T10:25:29;11.30;;;2.72;;
31638;SDS011;18248;51.522;7.020;2023-03-23T10:28:39;9.32;;;2.47;;
31638;SDS011;18248;51.522;7.020;2023-03-23T10:32:35;11.43;;;2.65;;
31638;SDS011;18248;51.522;7.020;2023-03-23T10:35:11;5.53;;;2.13;;
31638;SDS011;18248;51.522;7.020;2023-03-23T10:38:18;6.70;;;1.52;;
31638;SDS011;18248;51.522;7.020;2023-03-23T10:41:21;10.35;;;1.52;;
31638;SDS011;18248;51.522;7.020;2023-03-23T10:44:21;5.15;;;1.42;;
31638;SDS011;18248;51.522;7.020;2023-03-23T10:47:23;6.72;;;1.35;;
31638;SDS011;18248;51.522;7.020;2023-03-23T10:50:23;5.72;;;1.50;;
31638;SDS011;18248;51.522;7.020;2023-03-23T10:53:31;4.90;;;1.10;;
31638;SDS011;18248;51.522;7.020;2023-03-23T10:56:37;5.05;;;1.58;;
31638;SDS011;18248;51.522;7.020;2023-03-23T10:59:39;4.60;;;1.70;;
31638;SDS011;18248;51.522;7.020;2023-03-23T11:02:39;9.07;;;2.30;;
31638;SDS011;18248;51.522;7.020;2023-03-23T11:06:01;6.85;;;1.88;;
31638;SDS011;18248;51.522;7.020;2023-03-23T11:09:03;7.40;;;1.77;;
31638;SDS011;18248;51.522;7.020;2023-03-23T11:12:16;8.60;;;2.20;;
31638;SDS011;18248;51.522;7.020;2023-03-23T11:15:27;7.40;;;1.98;;
31638;SDS011;18248;51.522;7.020;2023-03-23T11:18:37;10.48;;;2.47;;
31638;SDS011;18248;51.522;7.020;2023-03-23T11:21:37;6.97;;;2.28;;
31638;SDS011;18248;51.522;7.020;2023-03-23T11:24:40;9.60;;;2.38;;
31638;SDS011;18248;51.522;7.020;2023-03-23T11:27:50;7.68;;;2.20;;
31638;SDS011;18248;51.522;7.020;2023-03-23T11:30:49;5.75;;;2.00;;
31638;SDS011;18248;51.522;7.020;2023-03-23T11:33:56;10.83;;;2.00;;
31638;SDS011;18248;51.522;7.020;2023-03-23T11:40:10;9.98;;;1.98;;
31638;SDS011;18248;51.522;7.020;2023-03-23T11:43:13;6.80;;;2.28;;
31638;SDS011;18248;51.522;7.020;2023-03-23T11:50:04;7.07;;;2.13;;
31638;SDS011;18248;51.522;7.020;2023-03-23T11:56:27;8.77;;;2.97;;
31638;SDS011;18248;51.522;7.020;2023-03-23T11:59:39;8.10;;;2.40;;
31638;SDS011;18248;51.522;7.020;2023-03-23T12:06:03;8.77;;;2.67;;
31638;SDS011;18248;51.522;7.020;2023-03-23T12:16:06;12.60;;;3.80;;
31638;SDS011;18248;51.522;7.020;2023-03-23T12:19:10;14.75;;;3.78;;
31638;SDS011;18248;51.522;7.020;2023-03-23T12:25:52;11.93;;;5.10;;
31638;SDS011;18248;51.522;7.020;2023-03-23T12:29:14;10.13;;;5.28;;
31638;SDS011;18248;51.522;7.020;2023-03-23T12:32:42;9.90;;;3.25;;
31638;SDS011;18248;51.522;7.020;2023-03-23T12:39:08;13.23;;;2.58;;
31638;SDS011;18248;51.522;7.020;2023-03-23T12:42:49;6.53;;;2.00;;
31638;SDS011;18248;51.522;7.020;2023-03-23T12:46:18;4.82;;;2.10;;
31638;SDS011;18248;51.522;7.020;2023-03-23T12:49:33;4.43;;;1.83;;
31638;SDS011;18248;51.522;7.020;2023-03-23T12:52:42;6.07;;;2.40;;
31638;SDS011;18248;51.522;7.020;2023-03-23T12:58:44;7.18;;;2.10;;
31638;SDS011;18248;51.522;7.020;2023-03-23T13:01:50;4.40;;;2.35;;
31638;SDS011;18248;51.522;7.020;2023-03-23T13:05:00;4.65;;;2.22;;
31638;SDS011;18248;51.522;7.020;2023-03-23T13:08:06;4.18;;;2.25;;
31638;SDS011;18248;51.522;7.020;2023-03-23T13:11:13;5.68;;;2.28;;
31638;SDS011;18248;51.522;7.020;2023-03-23T13:14:18;5.63;;;2.13;;
31638;SDS011;18248;51.522;7.020;2023-03-23T13:17:44;4.70;;;2.00;;
31638;SDS011;18248;51.522;7.020;2023-03-23T13:24:10;6.38;;;2.08;;
31638;SDS011;18248;51.522;7.020;2023-03-23T13:27:12;5.13;;;2.40;;
31638;SDS011;18248;51.522;7.020;2023-03-23T13:30:19;7.82;;;2.50;;
31638;SDS011;18248;51.522;7.020;2023-03-23T13:33:22;6.90;;;2.55;;
31638;SDS011;18248;51.522;7.020;2023-03-23T13:36:31;10.23;;;2.80;;
31638;SDS011;18248;51.522;7.020;2023-03-23T13:39:35;6.30;;;2.30;;
31638;SDS011;18248;51.522;7.020;2023-03-23T13:42:35;7.07;;;2.50;;
31638;SDS011;18248;51.522;7.020;2023-03-23T13:45:45;6.68;;;2.80;;
31638;SDS011;18248;51.522;7.020;2023-03-23T13:48:46;12.07;;;3.28;;
31638;SDS011;18248;51.522;7.020;2023-03-23T13:51:51;7.22;;;2.90;;
31638;SDS011;18248;51.522;7.020;2023-03-23T13:55:21;6.65;;;2.60;;
31638;SDS011;18248;51.522;7.020;2023-03-23T13:58:24;7.45;;;2.83;;
31638;SDS011;18248;51.522;7.020;2023-03-23T14:01:33;9.90;;;3.10;;
31638;SDS011;18248;51.522;7.020;2023-03-23T14:04:34;9.45;;;3.20;;
31638;SDS011;18248;51.522;7.020;2023-03-23T14:07:49;8.77;;;2.85;;
31638;SDS011;18248;51.522;7.020;2023-03-23T14:10:53;9.70;;;3.40;;
31638;SDS011;18248;51.522;7.020;2023-03-23T14:20:31;11.50;;;3.45;;
31638;SDS011;18248;51.522;7.020;2023-03-23T14:23:32;7.25;;;2.35;;
31638;SDS011;18248;51.522;7.020;2023-03-23T14:26:33;7.68;;;2.20;;
31638;SDS011;18248;51.522;7.020;2023-03-23T14:29:33;8.82;;;2.40;;
31638;SDS011;18248;51.522;7.020;2023-03-23T14:32:33;6.95;;;2.33;;
31638;SDS011;18248;51.522;7.020;2023-03-23T14:35:34;9.73;;;2.70;;
31638;SDS011;18248;51.522;7.020;2023-03-23T14:38:35;7.65;;;2.45;;
31638;SDS011;18248;51.522;7.020;2023-03-23T14:41:34;6.60;;;2.42;;
31638;SDS011;18248;51.522;7.020;2023-03-23T14:44:34;7.15;;;2.70;;
31638;SDS011;18248;51.522;7.020;2023-03-23T14:47:39;5.03;;;2.75;;
31638;SDS011;18248;51.522;7.020;2023-03-23T14:50:55;5.63;;;2.80;;
31638;SDS011;18248;51.522;7.020;2023-03-23T14:54:07;8.20;;;2.78;;
31638;SDS011;18248;51.522;7.020;2023-03-23T14:57:16;8.88;;;3.25;;
31638;SDS011;18248;51.522;7.020;2023-03-23T15:00:27;8.10;;;2.72;;
31638;SDS011;18248;51.522;7.020;2023-03-23T15:03:40;15.05;;;2.63;;
31638;SDS011;18248;51.522;7.020;2023-03-23T15:06:48;6.95;;;2.28;;
31638;SDS011;18248;51.522;7.020;2023-03-23T15:09:58;7.25;;;2.58;;
31638;SDS011;18248;51.522;7.020;2023-03-23T15:12:58;7.18;;;2.75;;
31638;SDS011;18248;51.522;7.020;2023-03-23T15:16:04;8.50;;;2.85;;
31638;SDS011;18248;51.522;7.020;2023-03-23T15:19:11;5.73;;;2.40;;
31638;SDS011;18248;51.522;7.020;2023-03-23T15:22:24;9.05;;;2.80;;
31638;SDS011;18248;51.522;7.020;2023-03-23T15:28:28;7.38;;;2.65;;
31638;SDS011;18248;51.522;7.020;2023-03-23T15:31:30;7.32;;;2.67;;
31638;SDS011;18248;51.522;7.020;2023-03-23T15:34:30;7.10;;;2.17;;
31638;SDS011;18248;51.522;7.020;2023-03-23T15:37:31;5.47;;;1.70;;
31638;SDS011;18248;51.522;7.020;2023-03-23T15:40:35;12.60;;;2.10;;
31638;SDS011;18248;51.522;7.020;2023-03-23T15:43:37;7.85;;;2.42;;
31638;SDS011;18248;51.522;7.020;2023-03-23T15:46:53;7.03;;;2.25;;
31638;SDS011;18248;51.522;7.020;2023-03-23T15:50:08;5.63;;;1.55;;
31638;SDS011;18248;51.522;7.020;2023-03-23T15:56:21;6.57;;;1.63;;
31638;SDS011;18248;51.522;7.020;2023-03-23T15:59:21;8.07;;;2.03;;
31638;SDS011;18248;51.522;7.020;2023-03-23T16:02:20;6.85;;;1.83;;
31638;SDS011;18248;51.522;7.020;2023-03-23T16:05:21;8.00;;;1.70;;
31638;SDS011;18248;51.522;7.020;2023-03-23T16:08:19;8.77;;;2.15;;
31638;SDS011;18248;51.522;7.020;2023-03-23T16:11:18;12.25;;;2.53;;
31638;SDS011;18248;51.522;7.020;2023-03-23T16:14:16;7.30;;;2.00;;
31638;SDS011;18248;51.522;7.020;2023-03-23T16:17:16;11.27;;;2.55;;
31638;SDS011;18248;51.522;7.020;2023-03-23T16:20:18;6.72;;;1.98;;
31638;SDS011;18248;51.522;7.020;2023-03-23T16:23:19;7.78;;;2.33;;
31638;SDS011;18248;51.522;7.020;2023-03-23T16:26:18;7.97;;;2.00;;
31638;SDS011;18248;51.522;7.020;2023-03-23T16:29:16;6.60;;;2.10;;
31638;SDS011;18248;51.522;7.020;2023-03-23T16:32:15;6.95;;;2.15;;
31638;SDS011;18248;51.522;7.020;2023-03-23T16:35:14;7.22;;;2.22;;
31638;SDS011;18248;51.522;7.020;2023-03-23T16:38:14;8.45;;;3.00;;
31638;SDS011;18248;51.522;7.020;2023-03-23T16:41:13;11.02;;;2.28;;
31638;SDS011;18248;51.522;7.020;2023-03-23T16:44:12;8.00;;;2.60;;
31638;SDS011;18248;51.522;7.020;2023-03-23T16:47:10;5.80;;;1.85;;
31638;SDS011;18248;51.522;7.020;2023-03-23T16:50:10;7.88;;;2.03;;
31638;SDS011;18248;51.522;7.020;2023-03-23T16:53:10;11.18;;;2.97;;
31638;SDS011;18248;51.522;7.020;2023-03-23T16:56:09;8.60;;;2.40;;
31638;SDS011;18248;51.522;7.020;2023-03-23T16:59:07;11.75;;;2.45;;
31638;SDS011;18248;51.522;7.020;2023-03-23T17:02:08;10.30;;;2.55;;
31638;SDS011;18248;51.522;7.020;2023-03-23T17:05:09;9.98;;;2.55;;
31638;SDS011;18248;51.522;7.020;2023-03-23T17:08:08;8.68;;;2.00;;
31638;SDS011;18248;51.522;7.020;2023-03-23T17:11:06;10.70;;;2.17;;
31638;SDS011;18248;51.522;7.020;2023-03-23T17:14:05;8.23;;;2.17;;
31638;SDS011;18248;51.522;7.020;2023-03-23T17:17:03;7.20;;;2.13;;
31638;SDS011;18248;51.522;7.020;2023-03-23T17:20:03;11.10;;;2.85;;
31638;SDS011;18248;51.522;7.020;2023-03-23T17:23:02;11.02;;;3.00;;
31638;SDS011;18248;51.522;7.020;2023-03-23T17:26:01;15.25;;;3.03;;
31638;SDS011;18248;51.522;7.020;2023-03-23T17:28:59;12.88;;;4.22;;
31638;SDS011;18248;51.522;7.020;2023-03-23T17:31:58;10.85;;;3.97;;
31638;SDS011;18248;51.522;7.020;2023-03-23T17:34:56;9.75;;;3.72;;
31638;SDS011;18248;51.522;7.020;2023-03-23T17:37:55;13.77;;;4.07;;
31638;SDS011;18248;51.522;7.020;2023-03-23T17:40:55;14.95;;;5.82;;
31638;SDS011;18248;51.522;7.020;2023-03-23T17:43:57;15.48;;;3.95;;
31638;SDS011;18248;51.522;7.020;2023-03-23T17:46:55;8.70;;;2.95;;
31638;SDS011;18248;51.522;7.020;2023-03-23T17:49:54;7.30;;;2.72;;
31638;SDS011;18248;51.522;7.020;2023-03-23T17:52:53;8.40;;;2.95;;
31638;SDS011;18248;51.522;7.020;2023-03-23T17:55:54;9.82;;;3.50;;
31638;SDS011;18248;51.522;7.020;2023-03-23T17:58:53;6.85;;;2.70;;
31638;SDS011;18248;51.522;7.020;2023-03-23T18:01:52;8.27;;;2.95;;
31638;SDS011;18248;51.522;7.020;2023-03-23T18:04:50;12.45;;;4.40;;
31638;SDS011;18248;51.522;7.020;2023-03-23T18:07:49;10.13;;;4.93;;
31638;SDS011;18248;51.522;7.020;2023-03-23T18:10:47;14.20;;;5.05;;
31638;SDS011;18248;51.522;7.020;2023-03-23T18:13:46;18.13;;;6.18;;
31638;SDS011;18248;51.522;7.020;2023-03-23T18:16:45;19.17;;;9.50;;
31638;SDS011;18248;51.522;7.020;2023-03-23T18:19:44;14.85;;;6.47;;
31638;SDS011;18248;51.522;7.020;2023-03-23T18:22:43;14.90;;;6.65;;
31638;SDS011;18248;51.522;7.020;2023-03-23T18:25:42;16.38;;;7.07;;
31638;SDS011;18248;51.522;7.020;2023-03-23T18:28:41;24.95;;;10.35;;
31638;SDS011;18248;51.522;7.020;2023-03-23T18:31:40;30.35;;;11.80;;
31638;SDS011;18248;51.522;7.020;2023-03-23T18:34:40;23.52;;;10.07;;
31638;SDS011;18248;51.522;7.020;2023-03-23T18:37:39;22.55;;;8.48;;
31638;SDS011;18248;51.522;7.020;2023-03-23T18:40:42;18.92;;;6.45;;
31638;SDS011;18248;51.522;7.020;2023-03-23T18:46:41;46.30;;;20.27;;
31638;SDS011;18248;51.522;7.020;2023-03-23T18:49:40;35.40;;;17.50;;
31638;SDS011;18248;51.522;7.020;2023-03-23T18:52:38;33.88;;;15.50;;
31638;SDS011;18248;51.522;7.020;2023-03-23T18:55:37;17.58;;;7.35;;
31638;SDS011;18248;51.522;7.020;2023-03-23T18:58:36;9.57;;;3.40;;
31638;SDS011;18248;51.522;7.020;2023-03-23T19:01:35;11.45;;;3.13;;
31638;SDS011;18248;51.522;7.020;2023-03-23T19:04:33;7.22;;;2.70;;
31638;SDS011;18248;51.522;7.020;2023-03-23T19:07:32;13.30;;;4.20;;
31638;SDS011;18248;51.522;7.020;2023-03-23T19:10:30;13.00;;;4.40;;
31638;SDS011;18248;51.522;7.020;2023-03-23T19:13:33;15.98;;;3.78;;
31638;SDS011;18248;51.522;7.020;2023-03-23T19:16:33;13.70;;;3.72;;
31638;SDS011;18248;51.522;7.020;2023-03-23T19:19:32;9.50;;;3.40;;
31638;SDS011;18248;51.522;7.020;2023-03-23T19:22:33;12.25;;;3.70;;
31638;SDS011;18248;51.522;7.020;2023-03-23T19:25:33;10.40;;;3.13;;
31638;SDS011;18248;51.522;7.020;2023-03-23T19:28:31;12.02;;;3.58;;
31638;SDS011;18248;51.522;7.020;2023-03-23T19:31:30;10.82;;;3.20;;
31638;SDS011;18248;51.522;7.020;2023-03-23T19:34:28;8.63;;;3.40;;
31638;SDS011;18248;51.522;7.020;2023-03-23T19:37:28;14.05;;;3.50;;